Principe Do Alentejo — CUMJ3 — position and weather

sailwx.info

Track history (hours):
 
Tides and Currents Weather Stations Pressure Air Temp Water Temp Dewpoint Dewpoint Depression Visibility Wind Speed Wind Dir Waves Ship Positions

Principe Do Alentejo

Last reported at 2017-Oct-23 07:37 UTC. Time now 2017-Dec-12 20:06 UTC.
Position N 37°57' W 008°52'.
Warning: this ship's position is 50 days out of date.

Length 16 m.

MMSI: 263412890.

Date/timePositionNaut miles runAvg speedWind from/ knotsBaromVisibWave heightAir tempDewpointWater temp
2017-Oct-23 07:37N 37°57' W 008°52'0 0.0
2017-Oct-23 07:30N 37°57' W 008°52'2 3.4
2017-Oct-23 07:00N 37°57' W 008°54'3 5.7
2017-Oct-23 06:30N 37°60' W 008°53'4 8.2
2017-Oct-23 06:00N 38°03' W 008°51'3 5.4
2017-Oct-23 05:30N 38°06' W 008°50'1 2.2
2017-Oct-23 05:00N 38°07' W 008°49'3 6.8
2017-Oct-23 04:30N 38°10' W 008°49'3 5.7
2017-Oct-23 04:00N 38°07' W 008°49'2 4.7
2017-Oct-23 03:30N 38°05' W 008°50'3 7.0
2017-Oct-23 03:00N 38°02' W 008°52'2 3.8
2017-Oct-23 02:30N 38°00' W 008°51'0 0.3
2017-Oct-23 02:00N 38°00' W 008°51'0 0.1
2017-Oct-23 01:30N 38°00' W 008°52'0 0.1
2017-Oct-23 01:00N 38°00' W 008°52'3 5.7
2017-Oct-23 00:30N 37°58' W 008°54'2 4.1
2017-Oct-23 00:00N 37°57' W 008°52'0 0.3
2017-Oct-22 23:30N 37°57' W 008°52'0 0.0
2017-Oct-22 23:00N 37°57' W 008°52'  
Track history (hours):
 
Tides and Currents Weather Stations Pressure Air Temp Water Temp Dewpoint Dewpoint Depression Visibility Wind Speed Wind Dir Waves Ship Positions

Principe Do Alentejo

Last reported at 2017-Oct-23 07:37 UTC. Time now 2017-Dec-12 20:06 UTC.
Position N 37°57' W 008°52'.
Warning: this ship's position is 50 days out of date.

Length 16 m.

MMSI: 263412890.

Date/timePositionNaut miles runAvg speedWind from/ knotsBaromVisibWave heightAir tempDewpointWater temp
2017-Oct-23 07:37N 37°57' W 008°52'0 0.0
2017-Oct-23 07:30N 37°57' W 008°52'2 3.4
2017-Oct-23 07:00N 37°57' W 008°54'3 5.7
2017-Oct-23 06:30N 37°60' W 008°53'4 8.2
2017-Oct-23 06:00N 38°03' W 008°51'3 5.4
2017-Oct-23 05:30N 38°06' W 008°50'1 2.2
2017-Oct-23 05:00N 38°07' W 008°49'3 6.8
2017-Oct-23 04:30N 38°10' W 008°49'3 5.7
2017-Oct-23 04:00N 38°07' W 008°49'2 4.7
2017-Oct-23 03:30N 38°05' W 008°50'3 7.0
2017-Oct-23 03:00N 38°02' W 008°52'2 3.8
2017-Oct-23 02:30N 38°00' W 008°51'0 0.3
2017-Oct-23 02:00N 38°00' W 008°51'0 0.1
2017-Oct-23 01:30N 38°00' W 008°52'0 0.1
2017-Oct-23 01:00N 38°00' W 008°52'3 5.7
2017-Oct-23 00:30N 37°58' W 008°54'2 4.1
2017-Oct-23 00:00N 37°57' W 008°52'0 0.3
2017-Oct-22 23:30N 37°57' W 008°52'0 0.0
2017-Oct-22 23:00N 37°57' W 008°52'  

Dump ship's entire track history